sensor_id;sensor_type;location;lat;lon;timestamp;P1;durP1;ratioP1;P2;durP2;ratioP2
70303;SDS011;57712;48.752;11.348;2023-04-30T00:01:25;6.15;;;3.35;;
70303;SDS011;57712;48.752;11.348;2023-04-30T00:03:52;7.13;;;3.40;;
70303;SDS011;57712;48.752;11.348;2023-04-30T00:06:19;7.15;;;2.88;;
70303;SDS011;57712;48.752;11.348;2023-04-30T00:08:45;6.35;;;3.00;;
70303;SDS011;57712;48.752;11.348;2023-04-30T00:11:12;6.63;;;3.05;;
70303;SDS011;57712;48.752;11.348;2023-04-30T00:13:39;6.57;;;3.35;;
70303;SDS011;57712;48.752;11.348;2023-04-30T00:16:08;6.63;;;3.20;;
70303;SDS011;57712;48.752;11.348;2023-04-30T00:18:35;6.80;;;3.28;;
70303;SDS011;57712;48.752;11.348;2023-04-30T00:21:02;6.65;;;3.10;;
70303;SDS011;57712;48.752;11.348;2023-04-30T00:23:29;6.55;;;3.45;;
70303;SDS011;57712;48.752;11.348;2023-04-30T00:25:56;6.65;;;3.15;;
70303;SDS011;57712;48.752;11.348;2023-04-30T00:28:22;6.90;;;3.37;;
70303;SDS011;57712;48.752;11.348;2023-04-30T00:30:49;6.75;;;3.38;;
70303;SDS011;57712;48.752;11.348;2023-04-30T00:33:16;6.95;;;3.30;;
70303;SDS011;57712;48.752;11.348;2023-04-30T00:35:42;6.57;;;2.83;;
70303;SDS011;57712;48.752;11.348;2023-04-30T00:38:09;6.63;;;3.08;;
70303;SDS011;57712;48.752;11.348;2023-04-30T00:40:36;9.13;;;3.37;;
70303;SDS011;57712;48.752;11.348;2023-04-30T00:43:03;6.75;;;3.22;;
70303;SDS011;57712;48.752;11.348;2023-04-30T00:45:30;7.13;;;3.20;;
70303;SDS011;57712;48.752;11.348;2023-04-30T00:47:57;6.57;;;3.22;;
70303;SDS011;57712;48.752;11.348;2023-04-30T00:50:24;7.55;;;3.70;;
70303;SDS011;57712;48.752;11.348;2023-04-30T00:52:51;7.57;;;3.20;;
70303;SDS011;57712;48.752;11.348;2023-04-30T00:55:18;6.18;;;3.22;;
70303;SDS011;57712;48.752;11.348;2023-04-30T00:57:45;7.07;;;3.63;;
70303;SDS011;57712;48.752;11.348;2023-04-30T01:00:12;6.63;;;3.33;;
70303;SDS011;57712;48.752;11.348;2023-04-30T01:02:39;6.47;;;3.13;;
70303;SDS011;57712;48.752;11.348;2023-04-30T01:05:06;7.00;;;3.57;;
70303;SDS011;57712;48.752;11.348;2023-04-30T01:07:33;8.35;;;4.05;;
70303;SDS011;57712;48.752;11.348;2023-04-30T01:10:01;8.73;;;4.10;;
70303;SDS011;57712;48.752;11.348;2023-04-30T01:12:42;7.00;;;3.60;;
70303;SDS011;57712;48.752;11.348;2023-04-30T01:15:32;7.75;;;4.20;;
70303;SDS011;57712;48.752;11.348;2023-04-30T01:18:17;9.17;;;4.00;;
70303;SDS011;57712;48.752;11.348;2023-04-30T01:20:52;8.80;;;4.30;;
70303;SDS011;57712;48.752;11.348;2023-04-30T01:29:14;8.30;;;4.45;;
70303;SDS011;57712;48.752;11.348;2023-04-30T01:31:44;8.90;;;5.00;;
70303;SDS011;57712;48.752;11.348;2023-04-30T01:34:11;10.15;;;4.85;;
70303;SDS011;57712;48.752;11.348;2023-04-30T01:36:47;9.93;;;5.30;;
70303;SDS011;57712;48.752;11.348;2023-04-30T01:42:21;9.95;;;5.35;;
70303;SDS011;57712;48.752;11.348;2023-04-30T01:47:56;8.80;;;5.10;;
70303;SDS011;57712;48.752;11.348;2023-04-30T01:53:05;9.35;;;5.40;;
70303;SDS011;57712;48.752;11.348;2023-04-30T01:55:36;8.05;;;4.45;;
70303;SDS011;57712;48.752;11.348;2023-04-30T01:58:11;7.87;;;4.33;;
70303;SDS011;57712;48.752;11.348;2023-04-30T02:00:40;9.55;;;5.20;;
70303;SDS011;57712;48.752;11.348;2023-04-30T02:03:07;8.82;;;5.28;;
70303;SDS011;57712;48.752;11.348;2023-04-30T02:05:34;9.82;;;5.50;;
70303;SDS011;57712;48.752;11.348;2023-04-30T02:08:01;9.23;;;5.30;;
70303;SDS011;57712;48.752;11.348;2023-04-30T02:10:28;9.60;;;5.33;;
70303;SDS011;57712;48.752;11.348;2023-04-30T02:12:55;9.45;;;5.18;;
70303;SDS011;57712;48.752;11.348;2023-04-30T02:15:22;10.25;;;5.85;;
70303;SDS011;57712;48.752;11.348;2023-04-30T02:17:49;9.20;;;5.15;;
70303;SDS011;57712;48.752;11.348;2023-04-30T02:20:16;9.70;;;5.90;;
70303;SDS011;57712;48.752;11.348;2023-04-30T02:22:42;9.83;;;5.30;;
70303;SDS011;57712;48.752;11.348;2023-04-30T02:25:09;8.88;;;5.25;;
70303;SDS011;57712;48.752;11.348;2023-04-30T02:27:37;10.00;;;6.18;;
70303;SDS011;57712;48.752;11.348;2023-04-30T02:30:04;9.60;;;5.53;;
70303;SDS011;57712;48.752;11.348;2023-04-30T02:32:32;11.38;;;6.22;;
70303;SDS011;57712;48.752;11.348;2023-04-30T02:34:59;10.77;;;5.37;;
70303;SDS011;57712;48.752;11.348;2023-04-30T02:37:26;9.88;;;5.45;;
70303;SDS011;57712;48.752;11.348;2023-04-30T02:39:52;9.98;;;5.85;;
70303;SDS011;57712;48.752;11.348;2023-04-30T02:42:20;12.18;;;6.40;;
70303;SDS011;57712;48.752;11.348;2023-04-30T02:44:47;10.82;;;5.90;;
70303;SDS011;57712;48.752;11.348;2023-04-30T02:47:14;9.43;;;5.43;;
70303;SDS011;57712;48.752;11.348;2023-04-30T02:49:41;9.23;;;5.40;;
70303;SDS011;57712;48.752;11.348;2023-04-30T02:52:08;10.65;;;5.95;;
70303;SDS011;57712;48.752;11.348;2023-04-30T02:54:35;11.45;;;6.13;;
70303;SDS011;57712;48.752;11.348;2023-04-30T02:57:02;11.77;;;6.28;;
70303;SDS011;57712;48.752;11.348;2023-04-30T02:59:29;12.17;;;5.63;;
70303;SDS011;57712;48.752;11.348;2023-04-30T03:01:55;10.50;;;6.05;;
70303;SDS011;57712;48.752;11.348;2023-04-30T03:04:22;10.68;;;6.30;;
70303;SDS011;57712;48.752;11.348;2023-04-30T03:06:49;11.65;;;6.90;;
70303;SDS011;57712;48.752;11.348;2023-04-30T03:09:16;9.77;;;6.15;;
70303;SDS011;57712;48.752;11.348;2023-04-30T03:11:43;11.40;;;6.60;;
70303;SDS011;57712;48.752;11.348;2023-04-30T03:14:10;10.77;;;6.50;;
70303;SDS011;57712;48.752;11.348;2023-04-30T03:16:36;11.63;;;6.68;;
70303;SDS011;57712;48.752;11.348;2023-04-30T03:19:03;11.40;;;6.63;;
70303;SDS011;57712;48.752;11.348;2023-04-30T03:21:30;10.77;;;6.63;;
70303;SDS011;57712;48.752;11.348;2023-04-30T03:23:56;12.03;;;6.40;;
70303;SDS011;57712;48.752;11.348;2023-04-30T03:26:23;12.40;;;6.80;;
70303;SDS011;57712;48.752;11.348;2023-04-30T03:28:50;11.20;;;6.75;;
70303;SDS011;57712;48.752;11.348;2023-04-30T03:31:16;11.32;;;6.97;;
70303;SDS011;57712;48.752;11.348;2023-04-30T03:33:43;11.32;;;6.90;;
70303;SDS011;57712;48.752;11.348;2023-04-30T03:36:10;11.70;;;6.73;;
70303;SDS011;57712;48.752;11.348;2023-04-30T03:38:38;12.20;;;7.30;;
70303;SDS011;57712;48.752;11.348;2023-04-30T03:41:04;12.02;;;7.10;;
70303;SDS011;57712;48.752;11.348;2023-04-30T03:43:32;12.13;;;7.00;;
70303;SDS011;57712;48.752;11.348;2023-04-30T03:45:59;10.40;;;6.97;;
70303;SDS011;57712;48.752;11.348;2023-04-30T03:48:26;13.13;;;7.00;;
70303;SDS011;57712;48.752;11.348;2023-04-30T03:50:53;12.27;;;7.32;;
70303;SDS011;57712;48.752;11.348;2023-04-30T03:53:20;12.23;;;7.45;;
70303;SDS011;57712;48.752;11.348;2023-04-30T03:55:47;11.48;;;6.82;;
70303;SDS011;57712;48.752;11.348;2023-04-30T03:58:15;11.13;;;7.20;;
70303;SDS011;57712;48.752;11.348;2023-04-30T04:00:41;11.87;;;6.97;;
70303;SDS011;57712;48.752;11.348;2023-04-30T04:03:14;12.27;;;7.38;;
70303;SDS011;57712;48.752;11.348;2023-04-30T04:05:41;12.02;;;7.57;;
70303;SDS011;57712;48.752;11.348;2023-04-30T04:08:08;11.65;;;7.38;;
70303;SDS011;57712;48.752;11.348;2023-04-30T04:10:34;12.68;;;8.02;;
70303;SDS011;57712;48.752;11.348;2023-04-30T04:13:01;12.07;;;7.57;;
70303;SDS011;57712;48.752;11.348;2023-04-30T04:15:28;12.55;;;7.50;;
70303;SDS011;57712;48.752;11.348;2023-04-30T04:17:54;11.93;;;7.43;;
70303;SDS011;57712;48.752;11.348;2023-04-30T04:20:21;12.30;;;7.35;;
70303;SDS011;57712;48.752;11.348;2023-04-30T04:22:48;12.57;;;7.53;;
70303;SDS011;57712;48.752;11.348;2023-04-30T04:25:14;12.23;;;7.53;;
70303;SDS011;57712;48.752;11.348;2023-04-30T04:27:42;12.57;;;7.95;;
70303;SDS011;57712;48.752;11.348;2023-04-30T04:30:09;13.18;;;8.90;;
70303;SDS011;57712;48.752;11.348;2023-04-30T04:32:37;14.43;;;9.52;;
70303;SDS011;57712;48.752;11.348;2023-04-30T04:35:14;15.68;;;9.55;;
70303;SDS011;57712;48.752;11.348;2023-04-30T04:37:40;12.90;;;8.30;;
70303;SDS011;57712;48.752;11.348;2023-04-30T04:40:07;13.00;;;8.55;;
70303;SDS011;57712;48.752;11.348;2023-04-30T04:42:34;12.13;;;8.32;;
70303;SDS011;57712;48.752;11.348;2023-04-30T04:45:01;13.70;;;8.27;;
70303;SDS011;57712;48.752;11.348;2023-04-30T04:47:29;12.70;;;7.82;;
70303;SDS011;57712;48.752;11.348;2023-04-30T04:49:56;13.07;;;7.83;;
70303;SDS011;57712;48.752;11.348;2023-04-30T04:52:22;12.73;;;8.15;;
70303;SDS011;57712;48.752;11.348;2023-04-30T04:54:49;12.23;;;8.30;;
70303;SDS011;57712;48.752;11.348;2023-04-30T04:57:15;12.48;;;8.02;;
70303;SDS011;57712;48.752;11.348;2023-04-30T04:59:42;12.57;;;7.85;;
70303;SDS011;57712;48.752;11.348;2023-04-30T05:02:09;13.00;;;7.93;;
70303;SDS011;57712;48.752;11.348;2023-04-30T05:04:36;12.18;;;7.97;;
70303;SDS011;57712;48.752;11.348;2023-04-30T05:07:02;12.55;;;8.75;;
70303;SDS011;57712;48.752;11.348;2023-04-30T05:09:29;12.40;;;8.45;;
70303;SDS011;57712;48.752;11.348;2023-04-30T05:11:55;13.23;;;8.77;;
70303;SDS011;57712;48.752;11.348;2023-04-30T05:14:22;12.57;;;8.17;;
70303;SDS011;57712;48.752;11.348;2023-04-30T05:16:49;11.65;;;7.95;;
70303;SDS011;57712;48.752;11.348;2023-04-30T05:19:16;14.60;;;8.60;;
70303;SDS011;57712;48.752;11.348;2023-04-30T05:21:42;12.75;;;8.20;;
70303;SDS011;57712;48.752;11.348;2023-04-30T05:24:09;15.20;;;8.82;;
70303;SDS011;57712;48.752;11.348;2023-04-30T05:26:36;13.90;;;8.70;;
70303;SDS011;57712;48.752;11.348;2023-04-30T05:29:02;12.82;;;8.55;;
70303;SDS011;57712;48.752;11.348;2023-04-30T05:31:29;13.48;;;9.13;;
70303;SDS011;57712;48.752;11.348;2023-04-30T05:33:57;13.80;;;8.98;;
70303;SDS011;57712;48.752;11.348;2023-04-30T05:36:24;12.68;;;8.05;;
70303;SDS011;57712;48.752;11.348;2023-04-30T05:38:51;13.57;;;8.40;;
70303;SDS011;57712;48.752;11.348;2023-04-30T05:41:17;13.70;;;9.05;;
70303;SDS011;57712;48.752;11.348;2023-04-30T05:43:44;13.88;;;8.90;;
70303;SDS011;57712;48.752;11.348;2023-04-30T05:46:11;13.68;;;9.30;;
70303;SDS011;57712;48.752;11.348;2023-04-30T05:48:38;14.02;;;9.18;;
70303;SDS011;57712;48.752;11.348;2023-04-30T05:51:05;15.13;;;9.60;;
70303;SDS011;57712;48.752;11.348;2023-04-30T05:53:33;13.13;;;9.35;;
70303;SDS011;57712;48.752;11.348;2023-04-30T05:56:00;13.27;;;9.10;;
70303;SDS011;57712;48.752;11.348;2023-04-30T05:58:26;13.82;;;8.85;;
70303;SDS011;57712;48.752;11.348;2023-04-30T06:00:53;14.05;;;8.88;;
70303;SDS011;57712;48.752;11.348;2023-04-30T06:03:20;13.27;;;8.90;;
70303;SDS011;57712;48.752;11.348;2023-04-30T06:05:46;14.38;;;9.45;;
70303;SDS011;57712;48.752;11.348;2023-04-30T06:08:13;14.30;;;8.88;;
70303;SDS011;57712;48.752;11.348;2023-04-30T06:10:40;14.05;;;9.00;;
70303;SDS011;57712;48.752;11.348;2023-04-30T06:13:07;13.50;;;8.85;;
70303;SDS011;57712;48.752;11.348;2023-04-30T06:15:34;14.53;;;9.40;;
70303;SDS011;57712;48.752;11.348;2023-04-30T06:18:01;14.25;;;9.45;;
70303;SDS011;57712;48.752;11.348;2023-04-30T06:20:28;15.23;;;9.85;;
70303;SDS011;57712;48.752;11.348;2023-04-30T06:22:55;13.90;;;9.30;;
70303;SDS011;57712;48.752;11.348;2023-04-30T06:25:21;16.92;;;10.38;;
70303;SDS011;57712;48.752;11.348;2023-04-30T06:27:48;13.90;;;10.03;;
70303;SDS011;57712;48.752;11.348;2023-04-30T06:30:16;14.52;;;9.32;;
70303;SDS011;57712;48.752;11.348;2023-04-30T06:32:43;15.65;;;10.13;;
70303;SDS011;57712;48.752;11.348;2023-04-30T06:35:10;17.25;;;9.50;;
70303;SDS011;57712;48.752;11.348;2023-04-30T06:37:37;12.57;;;9.35;;
70303;SDS011;57712;48.752;11.348;2023-04-30T06:40:03;13.40;;;9.20;;
70303;SDS011;57712;48.752;11.348;2023-04-30T06:42:32;13.93;;;9.38;;
70303;SDS011;57712;48.752;11.348;2023-04-30T06:45:00;13.13;;;9.05;;
70303;SDS011;57712;48.752;11.348;2023-04-30T06:47:31;14.93;;;9.45;;
70303;SDS011;57712;48.752;11.348;2023-04-30T06:50:00;14.43;;;9.20;;
70303;SDS011;57712;48.752;11.348;2023-04-30T06:52:27;13.77;;;8.60;;
70303;SDS011;57712;48.752;11.348;2023-04-30T06:54:54;14.55;;;8.98;;
70303;SDS011;57712;48.752;11.348;2023-04-30T06:57:20;14.20;;;9.68;;
70303;SDS011;57712;48.752;11.348;2023-04-30T06:59:47;15.80;;;8.68;;
70303;SDS011;57712;48.752;11.348;2023-04-30T07:02:14;15.93;;;9.48;;
70303;SDS011;57712;48.752;11.348;2023-04-30T07:04:41;14.30;;;9.17;;
70303;SDS011;57712;48.752;11.348;2023-04-30T07:07:08;13.80;;;8.82;;
70303;SDS011;57712;48.752;11.348;2023-04-30T07:09:35;15.38;;;9.20;;
70303;SDS011;57712;48.752;11.348;2023-04-30T07:12:02;13.52;;;8.73;;
70303;SDS011;57712;48.752;11.348;2023-04-30T07:14:28;14.85;;;9.07;;
70303;SDS011;57712;48.752;11.348;2023-04-30T07:16:55;14.27;;;9.17;;
70303;SDS011;57712;48.752;11.348;2023-04-30T07:19:22;13.90;;;9.30;;
70303;SDS011;57712;48.752;11.348;2023-04-30T07:21:49;13.68;;;9.48;;
70303;SDS011;57712;48.752;11.348;2023-04-30T07:24:15;14.00;;;9.68;;
70303;SDS011;57712;48.752;11.348;2023-04-30T07:26:42;14.20;;;9.50;;
70303;SDS011;57712;48.752;11.348;2023-04-30T07:29:08;13.43;;;9.27;;
70303;SDS011;57712;48.752;11.348;2023-04-30T07:31:35;13.02;;;8.85;;
70303;SDS011;57712;48.752;11.348;2023-04-30T07:34:02;11.85;;;8.18;;
70303;SDS011;57712;48.752;11.348;2023-04-30T07:36:28;12.90;;;8.73;;
70303;SDS011;57712;48.752;11.348;2023-04-30T07:38:56;15.23;;;9.27;;
70303;SDS011;57712;48.752;11.348;2023-04-30T07:41:23;13.23;;;8.70;;
70303;SDS011;57712;48.752;11.348;2023-04-30T07:43:51;13.25;;;8.35;;
70303;SDS011;57712;48.752;11.348;2023-04-30T07:46:18;13.57;;;9.00;;
70303;SDS011;57712;48.752;11.348;2023-04-30T07:48:44;13.88;;;8.55;;
70303;SDS011;57712;48.752;11.348;2023-04-30T07:51:11;12.65;;;8.73;;
70303;SDS011;57712;48.752;11.348;2023-04-30T07:53:38;12.20;;;8.37;;
70303;SDS011;57712;48.752;11.348;2023-04-30T07:56:04;12.90;;;7.70;;
70303;SDS011;57712;48.752;11.348;2023-04-30T07:58:31;11.20;;;7.75;;
70303;SDS011;57712;48.752;11.348;2023-04-30T08:00:57;12.93;;;8.13;;
70303;SDS011;57712;48.752;11.348;2023-04-30T08:03:24;11.10;;;7.15;;
70303;SDS011;57712;48.752;11.348;2023-04-30T08:05:51;11.10;;;7.30;;
70303;SDS011;57712;48.752;11.348;2023-04-30T08:08:18;11.38;;;7.72;;
70303;SDS011;57712;48.752;11.348;2023-04-30T08:10:45;11.93;;;7.20;;
70303;SDS011;57712;48.752;11.348;2023-04-30T08:13:12;12.13;;;6.85;;
70303;SDS011;57712;48.752;11.348;2023-04-30T08:15:38;12.38;;;6.80;;
70303;SDS011;57712;48.752;11.348;2023-04-30T08:18:05;10.00;;;6.60;;
70303;SDS011;57712;48.752;11.348;2023-04-30T08:20:32;10.20;;;6.40;;
70303;SDS011;57712;48.752;11.348;2023-04-30T08:23:01;10.50;;;6.50;;
70303;SDS011;57712;48.752;11.348;2023-04-30T08:25:27;11.82;;;6.95;;
70303;SDS011;57712;48.752;11.348;2023-04-30T08:27:54;11.30;;;6.78;;
70303;SDS011;57712;48.752;11.348;2023-04-30T08:30:21;10.03;;;5.80;;
70303;SDS011;57712;48.752;11.348;2023-04-30T08:32:48;9.68;;;6.28;;
70303;SDS011;57712;48.752;11.348;2023-04-30T08:35:15;10.07;;;6.35;;
70303;SDS011;57712;48.752;11.348;2023-04-30T08:37:44;8.85;;;5.50;;
70303;SDS011;57712;48.752;11.348;2023-04-30T08:40:11;9.80;;;6.28;;
70303;SDS011;57712;48.752;11.348;2023-04-30T08:42:40;10.47;;;6.30;;
70303;SDS011;57712;48.752;11.348;2023-04-30T08:45:11;9.63;;;5.63;;
70303;SDS011;57712;48.752;11.348;2023-04-30T08:47:39;10.65;;;6.70;;
70303;SDS011;57712;48.752;11.348;2023-04-30T08:50:07;10.48;;;6.40;;
70303;SDS011;57712;48.752;11.348;2023-04-30T08:52:34;9.50;;;6.45;;
70303;SDS011;57712;48.752;11.348;2023-04-30T08:55:02;9.03;;;6.27;;
70303;SDS011;57712;48.752;11.348;2023-04-30T08:57:33;11.00;;;6.55;;
70303;SDS011;57712;48.752;11.348;2023-04-30T08:59:59;9.15;;;5.93;;
70303;SDS011;57712;48.752;11.348;2023-04-30T09:02:26;7.07;;;3.65;;
70303;SDS011;57712;48.752;11.348;2023-04-30T09:04:53;7.07;;;4.05;;
70303;SDS011;57712;48.752;11.348;2023-04-30T09:07:20;7.37;;;4.17;;
70303;SDS011;57712;48.752;11.348;2023-04-30T09:09:49;6.15;;;3.35;;
70303;SDS011;57712;48.752;11.348;2023-04-30T09:12:19;6.15;;;3.30;;
70303;SDS011;57712;48.752;11.348;2023-04-30T09:14:58;6.30;;;3.60;;
70303;SDS011;57712;48.752;11.348;2023-04-30T09:17:26;5.38;;;2.70;;
70303;SDS011;57712;48.752;11.348;2023-04-30T09:19:53;5.83;;;3.70;;
70303;SDS011;57712;48.752;11.348;2023-04-30T09:22:31;7.03;;;4.32;;
70303;SDS011;57712;48.752;11.348;2023-04-30T09:24:57;8.23;;;4.15;;
70303;SDS011;57712;48.752;11.348;2023-04-30T09:27:24;7.38;;;4.43;;
70303;SDS011;57712;48.752;11.348;2023-04-30T09:29:51;5.30;;;3.13;;
70303;SDS011;57712;48.752;11.348;2023-04-30T09:32:18;6.73;;;3.20;;
70303;SDS011;57712;48.752;11.348;2023-04-30T09:34:46;6.70;;;3.70;;
70303;SDS011;57712;48.752;11.348;2023-04-30T09:37:13;6.78;;;2.70;;
70303;SDS011;57712;48.752;11.348;2023-04-30T09:39:52;5.32;;;2.92;;
70303;SDS011;57712;48.752;11.348;2023-04-30T09:42:20;5.78;;;3.38;;
70303;SDS011;57712;48.752;11.348;2023-04-30T09:44:47;6.47;;;4.30;;
70303;SDS011;57712;48.752;11.348;2023-04-30T09:47:15;8.30;;;4.90;;
70303;SDS011;57712;48.752;11.348;2023-04-30T09:49:46;8.98;;;5.15;;
70303;SDS011;57712;48.752;11.348;2023-04-30T09:52:14;8.75;;;5.50;;
70303;SDS011;57712;48.752;11.348;2023-04-30T09:54:41;9.70;;;5.80;;
70303;SDS011;57712;48.752;11.348;2023-04-30T09:57:10;8.73;;;5.80;;
70303;SDS011;57712;48.752;11.348;2023-04-30T09:59:42;8.93;;;5.15;;
70303;SDS011;57712;48.752;11.348;2023-04-30T10:02:14;8.48;;;4.78;;
70303;SDS011;57712;48.752;11.348;2023-04-30T10:04:42;7.82;;;4.18;;
70303;SDS011;57712;48.752;11.348;2023-04-30T10:07:20;7.15;;;4.47;;
70303;SDS011;57712;48.752;11.348;2023-04-30T10:09:49;6.67;;;4.53;;
70303;SDS011;57712;48.752;11.348;2023-04-30T10:12:26;7.65;;;4.05;;
70303;SDS011;57712;48.752;11.348;2023-04-30T10:15:19;5.88;;;4.03;;
70303;SDS011;57712;48.752;11.348;2023-04-30T10:20:51;6.45;;;3.60;;
70303;SDS011;57712;48.752;11.348;2023-04-30T10:23:21;6.93;;;3.57;;
70303;SDS011;57712;48.752;11.348;2023-04-30T10:25:48;6.97;;;3.47;;
70303;SDS011;57712;48.752;11.348;2023-04-30T10:28:16;9.95;;;5.10;;
70303;SDS011;57712;48.752;11.348;2023-04-30T10:30:43;7.22;;;4.55;;
70303;SDS011;57712;48.752;11.348;2023-04-30T10:33:31;10.07;;;5.05;;
70303;SDS011;57712;48.752;11.348;2023-04-30T10:36:10;8.60;;;4.33;;
70303;SDS011;57712;48.752;11.348;2023-04-30T10:38:40;7.47;;;4.88;;
70303;SDS011;57712;48.752;11.348;2023-04-30T10:41:06;6.40;;;4.55;;
70303;SDS011;57712;48.752;11.348;2023-04-30T10:43:34;5.63;;;3.10;;
70303;SDS011;57712;48.752;11.348;2023-04-30T10:46:02;5.88;;;2.78;;
70303;SDS011;57712;48.752;11.348;2023-04-30T10:48:30;4.70;;;2.43;;
70303;SDS011;57712;48.752;11.348;2023-04-30T10:51:00;5.55;;;2.80;;
70303;SDS011;57712;48.752;11.348;2023-04-30T10:53:30;6.22;;;3.30;;
70303;SDS011;57712;48.752;11.348;2023-04-30T10:56:00;5.78;;;2.75;;
70303;SDS011;57712;48.752;11.348;2023-04-30T10:58:35;5.53;;;2.50;;
70303;SDS011;57712;48.752;11.348;2023-04-30T11:01:13;5.47;;;2.77;;
70303;SDS011;57712;48.752;11.348;2023-04-30T11:03:42;4.70;;;2.03;;
70303;SDS011;57712;48.752;11.348;2023-04-30T11:06:47;4.70;;;2.10;;
70303;SDS011;57712;48.752;11.348;2023-04-30T11:09:23;4.50;;;2.38;;
70303;SDS011;57712;48.752;11.348;2023-04-30T11:12:02;4.95;;;2.38;;
70303;SDS011;57712;48.752;11.348;2023-04-30T11:14:31;7.40;;;3.50;;
70303;SDS011;57712;48.752;11.348;2023-04-30T11:16:59;5.47;;;3.13;;
70303;SDS011;57712;48.752;11.348;2023-04-30T11:19:29;5.72;;;2.75;;
70303;SDS011;57712;48.752;11.348;2023-04-30T11:27:27;8.03;;;4.60;;
70303;SDS011;57712;48.752;11.348;2023-04-30T11:29:56;5.93;;;3.03;;
70303;SDS011;57712;48.752;11.348;2023-04-30T11:32:24;5.10;;;2.78;;
70303;SDS011;57712;48.752;11.348;2023-04-30T11:34:53;6.55;;;2.75;;
70303;SDS011;57712;48.752;11.348;2023-04-30T11:37:22;4.80;;;2.58;;
70303;SDS011;57712;48.752;11.348;2023-04-30T11:40:04;5.10;;;2.70;;
70303;SDS011;57712;48.752;11.348;2023-04-30T11:42:37;5.38;;;2.83;;
70303;SDS011;57712;48.752;11.348;2023-04-30T11:45:12;8.15;;;3.90;;
70303;SDS011;57712;48.752;11.348;2023-04-30T11:47:44;5.55;;;2.92;;
70303;SDS011;57712;48.752;11.348;2023-04-30T11:50:12;8.07;;;3.85;;
70303;SDS011;57712;48.752;11.348;2023-04-30T11:52:40;5.33;;;2.43;;
70303;SDS011;57712;48.752;11.348;2023-04-30T11:55:11;5.30;;;2.35;;
70303;SDS011;57712;48.752;11.348;2023-04-30T11:57:45;5.15;;;2.65;;
70303;SDS011;57712;48.752;11.348;2023-04-30T12:00:17;4.95;;;2.20;;
70303;SDS011;57712;48.752;11.348;2023-04-30T12:02:46;6.80;;;2.75;;
70303;SDS011;57712;48.752;11.348;2023-04-30T12:05:15;4.43;;;2.30;;
70303;SDS011;57712;48.752;11.348;2023-04-30T12:07:44;5.43;;;2.22;;
70303;SDS011;57712;48.752;11.348;2023-04-30T12:10:12;4.65;;;2.95;;
70303;SDS011;57712;48.752;11.348;2023-04-30T12:12:41;5.10;;;2.35;;
70303;SDS011;57712;48.752;11.348;2023-04-30T12:15:15;4.95;;;2.70;;
70303;SDS011;57712;48.752;11.348;2023-04-30T12:17:43;4.60;;;2.33;;
70303;SDS011;57712;48.752;11.348;2023-04-30T12:20:12;4.45;;;2.30;;
70303;SDS011;57712;48.752;11.348;2023-04-30T12:22:41;4.05;;;2.17;;
70303;SDS011;57712;48.752;11.348;2023-04-30T12:25:12;4.70;;;2.53;;
70303;SDS011;57712;48.752;11.348;2023-04-30T12:27:41;4.65;;;2.65;;
70303;SDS011;57712;48.752;11.348;2023-04-30T12:30:10;7.27;;;3.40;;
70303;SDS011;57712;48.752;11.348;2023-04-30T12:32:39;5.03;;;2.53;;
70303;SDS011;57712;48.752;11.348;2023-04-30T12:35:17;4.65;;;2.25;;
70303;SDS011;57712;48.752;11.348;2023-04-30T12:37:47;4.70;;;2.58;;
70303;SDS011;57712;48.752;11.348;2023-04-30T12:40:18;6.00;;;2.50;;
70303;SDS011;57712;48.752;11.348;2023-04-30T12:42:49;5.50;;;2.37;;
70303;SDS011;57712;48.752;11.348;2023-04-30T12:48:18;5.60;;;3.42;;
70303;SDS011;57712;48.752;11.348;2023-04-30T12:50:55;5.50;;;3.17;;
70303;SDS011;57712;48.752;11.348;2023-04-30T12:53:25;5.47;;;3.40;;
70303;SDS011;57712;48.752;11.348;2023-04-30T12:56:11;5.53;;;3.10;;
70303;SDS011;57712;48.752;11.348;2023-04-30T12:58:38;5.50;;;3.25;;
70303;SDS011;57712;48.752;11.348;2023-04-30T13:01:09;5.47;;;3.30;;
70303;SDS011;57712;48.752;11.348;2023-04-30T13:03:39;6.80;;;3.65;;
70303;SDS011;57712;48.752;11.348;2023-04-30T13:06:06;5.53;;;3.65;;
70303;SDS011;57712;48.752;11.348;2023-04-30T13:08:33;6.30;;;3.13;;
70303;SDS011;57712;48.752;11.348;2023-04-30T13:11:15;6.65;;;2.70;;
70303;SDS011;57712;48.752;11.348;2023-04-30T13:13:43;6.65;;;3.60;;
70303;SDS011;57712;48.752;11.348;2023-04-30T13:16:10;6.20;;;3.05;;
70303;SDS011;57712;48.752;11.348;2023-04-30T13:18:36;5.60;;;3.40;;
70303;SDS011;57712;48.752;11.348;2023-04-30T13:21:03;6.23;;;2.87;;
70303;SDS011;57712;48.752;11.348;2023-04-30T13:23:30;8.05;;;4.18;;
70303;SDS011;57712;48.752;11.348;2023-04-30T13:26:06;6.03;;;3.20;;
70303;SDS011;57712;48.752;11.348;2023-04-30T13:28:33;5.95;;;2.50;;
70303;SDS011;57712;48.752;11.348;2023-04-30T13:30:59;5.55;;;2.28;;
70303;SDS011;57712;48.752;11.348;2023-04-30T13:33:28;5.10;;;2.60;;
70303;SDS011;57712;48.752;11.348;2023-04-30T13:35:54;4.82;;;2.45;;
70303;SDS011;57712;48.752;11.348;2023-04-30T13:38:21;5.72;;;3.03;;
70303;SDS011;57712;48.752;11.348;2023-04-30T13:40:48;4.30;;;2.63;;
70303;SDS011;57712;48.752;11.348;2023-04-30T13:43:14;6.03;;;2.97;;
70303;SDS011;57712;48.752;11.348;2023-04-30T13:45:41;5.20;;;2.90;;
70303;SDS011;57712;48.752;11.348;2023-04-30T13:48:07;5.78;;;3.22;;
70303;SDS011;57712;48.752;11.348;2023-04-30T13:50:34;4.90;;;3.17;;
70303;SDS011;57712;48.752;11.348;2023-04-30T13:53:01;5.43;;;3.05;;
70303;SDS011;57712;48.752;11.348;2023-04-30T13:55:28;6.00;;;3.20;;
70303;SDS011;57712;48.752;11.348;2023-04-30T13:57:55;6.20;;;3.20;;
70303;SDS011;57712;48.752;11.348;2023-04-30T14:00:22;5.30;;;2.70;;
70303;SDS011;57712;48.752;11.348;2023-04-30T14:02:49;5.57;;;2.85;;
70303;SDS011;57712;48.752;11.348;2023-04-30T14:05:16;4.78;;;2.30;;
70303;SDS011;57712;48.752;11.348;2023-04-30T14:07:43;6.75;;;2.80;;
70303;SDS011;57712;48.752;11.348;2023-04-30T14:10:09;5.57;;;2.70;;
70303;SDS011;57712;48.752;11.348;2023-04-30T14:12:36;5.47;;;2.90;;
70303;SDS011;57712;48.752;11.348;2023-04-30T14:15:04;6.15;;;3.00;;
70303;SDS011;57712;48.752;11.348;2023-04-30T14:17:31;5.03;;;2.97;;
70303;SDS011;57712;48.752;11.348;2023-04-30T14:19:58;5.00;;;2.75;;
70303;SDS011;57712;48.752;11.348;2023-04-30T14:22:25;5.37;;;2.70;;
70303;SDS011;57712;48.752;11.348;2023-04-30T14:24:52;5.50;;;2.83;;
70303;SDS011;57712;48.752;11.348;2023-04-30T14:27:18;5.80;;;2.78;;
70303;SDS011;57712;48.752;11.348;2023-04-30T14:29:46;5.32;;;2.70;;
70303;SDS011;57712;48.752;11.348;2023-04-30T14:32:13;5.40;;;2.70;;
70303;SDS011;57712;48.752;11.348;2023-04-30T14:34:40;5.33;;;2.90;;
70303;SDS011;57712;48.752;11.348;2023-04-30T14:37:07;4.38;;;2.30;;
70303;SDS011;57712;48.752;11.348;2023-04-30T14:39:33;4.60;;;2.42;;
70303;SDS011;57712;48.752;11.348;2023-04-30T14:42:00;4.95;;;2.25;;
70303;SDS011;57712;48.752;11.348;2023-04-30T14:44:28;4.32;;;2.22;;
70303;SDS011;57712;48.752;11.348;2023-04-30T14:46:55;5.27;;;1.73;;
70303;SDS011;57712;48.752;11.348;2023-04-30T14:49:22;4.97;;;2.20;;
70303;SDS011;57712;48.752;11.348;2023-04-30T14:51:48;4.93;;;2.38;;
70303;SDS011;57712;48.752;11.348;2023-04-30T14:54:15;4.65;;;2.00;;
70303;SDS011;57712;48.752;11.348;2023-04-30T14:56:41;4.68;;;2.22;;
70303;SDS011;57712;48.752;11.348;2023-04-30T14:59:09;5.27;;;2.00;;
70303;SDS011;57712;48.752;11.348;2023-04-30T15:01:37;4.50;;;2.10;;